General Aviation Weather

Text Reports

Enter one or more of the following location identifiers separated by a space:

Zip Code, Four-Character ICAO or Three-Character IATA airport codes.

METAR - Aviation Routine Weather Report
KLNP - Wise, Virginia
Updated at 3:15 PM GMT on October 21, 2014 (11:15 AM EDT):
METAR KLNP 211515Z AUTO 29008G16KT 10SM BKN012 BKN019 OVC034 11/09 A3001 RMK AO2
TAF - Terminal Area Forecast
KLNP - Wise, Virginia
Updated at 3:15 PM GMT on October 21, 2014 (11:15 AM EDT):
No TAF is currently available for this location.
Decoded:
No decoded TAF is available.
PIREP - Pilot Weather Report
KLNP - Wise, Virginia
Updated at 3:15 PM GMT on October 21, 2014 (11:15 AM EDT):
No PIREP is currently available for this location.
AIRMET - Airmens Meteorological Information
KLNP - Wise, Virginia
Updated at 3:15 PM GMT on October 21, 2014 (11:15 AM EDT):
No AIRMET is currently available for this location.
SIGMET - Significant Meteorological Information
KLNP - Wise, Virginia
Updated at 3:15 PM GMT on October 21, 2014 (11:15 AM EDT):
No SIGMET is currently available for this location.
NOTAM - Notice to Airmen
KLNP - Wise, Virginia
Updated at 3:15 PM GMT on October 21, 2014 (11:15 AM EDT):
No NOTAM is currently available for this location.
Forecast Area
KLNP - Wise, Virginia
Updated at 3:15 PM GMT on October 21, 2014 (11:15 AM EDT):
No NOTAM is currently available for this location.
Aviation Weather Maps